sensor_id;sensor_type;location;lat;lon;timestamp;pressure;altitude;pressure_sealevel;temperature;humidity
77626;BME280;66794;43.764;10.436;2023-07-29T00:00:36;101757.63;;;23.77;100.00
77626;BME280;66794;43.764;10.436;2023-07-29T00:03:22;101743.88;;;23.59;100.00
77626;BME280;66794;43.764;10.436;2023-07-29T00:06:09;101711.38;;;23.19;100.00
77626;BME280;66794;43.764;10.436;2023-07-29T00:08:55;101742.84;;;23.18;100.00
77626;BME280;66794;43.764;10.436;2023-07-29T00:11:41;101745.06;;;23.40;100.00
77626;BME280;66794;43.764;10.436;2023-07-29T00:14:26;101753.00;;;23.48;100.00
77626;BME280;66794;43.764;10.436;2023-07-29T00:17:12;101736.63;;;23.23;100.00
77626;BME280;66794;43.764;10.436;2023-07-29T00:19:58;101747.53;;;23.18;100.00
77626;BME280;66794;43.764;10.436;2023-07-29T00:22:43;101733.69;;;23.06;100.00
77626;BME280;66794;43.764;10.436;2023-07-29T00:25:29;101738.66;;;23.27;100.00
77626;BME280;66794;43.764;10.436;2023-07-29T00:28:15;101730.25;;;23.22;100.00
77626;BME280;66794;43.764;10.436;2023-07-29T00:31:01;101719.50;;;23.02;100.00
77626;BME280;66794;43.764;10.436;2023-07-29T00:33:47;101735.72;;;23.10;100.00
77626;BME280;66794;43.764;10.436;2023-07-29T00:36:33;101735.25;;;23.14;100.00
77626;BME280;66794;43.764;10.436;2023-07-29T00:39:19;101731.38;;;23.03;100.00
77626;BME280;66794;43.764;10.436;2023-07-29T00:42:05;101698.44;;;22.90;100.00
77626;BME280;66794;43.764;10.436;2023-07-29T00:44:51;101723.88;;;23.22;100.00
77626;BME280;66794;43.764;10.436;2023-07-29T00:47:37;101717.72;;;23.20;100.00
77626;BME280;66794;43.764;10.436;2023-07-29T00:50:23;101717.38;;;23.16;100.00
77626;BME280;66794;43.764;10.436;2023-07-29T00:53:09;101724.41;;;23.00;100.00
77626;BME280;66794;43.764;10.436;2023-07-29T00:55:55;101724.94;;;22.61;100.00
77626;BME280;66794;43.764;10.436;2023-07-29T00:58:41;101740.06;;;22.40;100.00
77626;BME280;66794;43.764;10.436;2023-07-29T01:01:28;101747.06;;;22.24;100.00
77626;BME280;66794;43.764;10.436;2023-07-29T01:04:14;101759.25;;;22.10;100.00
77626;BME280;66794;43.764;10.436;2023-07-29T01:13:31;101748.19;;;22.83;100.00
77626;BME280;66794;43.764;10.436;2023-07-29T01:16:29;101733.75;;;22.69;100.00
77626;BME280;66794;43.764;10.436;2023-07-29T01:22:36;101728.22;;;22.69;100.00
77626;BME280;66794;43.764;10.436;2023-07-29T01:25:22;101746.66;;;22.87;100.00
77626;BME280;66794;43.764;10.436;2023-07-29T01:28:08;101727.75;;;22.91;100.00
77626;BME280;66794;43.764;10.436;2023-07-29T01:31:02;101728.75;;;22.60;100.00
77626;BME280;66794;43.764;10.436;2023-07-29T01:33:55;101706.69;;;22.60;100.00
77626;BME280;66794;43.764;10.436;2023-07-29T01:36:42;101732.41;;;22.72;100.00
77626;BME280;66794;43.764;10.436;2023-07-29T01:39:32;101717.59;;;22.84;100.00
77626;BME280;66794;43.764;10.436;2023-07-29T01:42:21;101712.00;;;22.43;100.00
77626;BME280;66794;43.764;10.436;2023-07-29T01:45:07;101704.69;;;22.18;100.00
77626;BME280;66794;43.764;10.436;2023-07-29T01:47:53;101704.28;;;22.15;100.00
77626;BME280;66794;43.764;10.436;2023-07-29T01:50:39;101715.22;;;22.21;100.00
77626;BME280;66794;43.764;10.436;2023-07-29T01:53:24;101710.78;;;22.20;100.00
77626;BME280;66794;43.764;10.436;2023-07-29T01:56:10;101727.34;;;22.20;100.00
77626;BME280;66794;43.764;10.436;2023-07-29T01:58:56;101741.16;;;22.20;100.00
77626;BME280;66794;43.764;10.436;2023-07-29T02:01:42;101702.97;;;22.17;100.00
77626;BME280;66794;43.764;10.436;2023-07-29T02:04:28;101723.03;;;22.43;100.00
77626;BME280;66794;43.764;10.436;2023-07-29T02:07:14;101732.03;;;22.20;100.00
77626;BME280;66794;43.764;10.436;2023-07-29T02:09:59;101728.03;;;22.16;100.00
77626;BME280;66794;43.764;10.436;2023-07-29T02:12:45;101729.00;;;22.03;100.00
77626;BME280;66794;43.764;10.436;2023-07-29T02:15:31;101739.13;;;22.09;100.00
77626;BME280;66794;43.764;10.436;2023-07-29T02:18:16;101731.38;;;22.18;100.00
77626;BME280;66794;43.764;10.436;2023-07-29T02:21:02;101737.22;;;22.46;100.00
77626;BME280;66794;43.764;10.436;2023-07-29T02:23:48;101702.97;;;22.36;100.00
77626;BME280;66794;43.764;10.436;2023-07-29T02:26:34;101725.72;;;22.13;100.00
77626;BME280;66794;43.764;10.436;2023-07-29T02:29:19;101736.47;;;21.96;100.00
77626;BME280;66794;43.764;10.436;2023-07-29T02:32:05;101724.28;;;22.10;100.00
77626;BME280;66794;43.764;10.436;2023-07-29T02:34:51;101737.91;;;22.23;100.00
77626;BME280;66794;43.764;10.436;2023-07-29T02:37:37;101721.91;;;22.32;100.00
77626;BME280;66794;43.764;10.436;2023-07-29T02:40:23;101735.59;;;22.39;100.00
77626;BME280;66794;43.764;10.436;2023-07-29T02:43:10;101734.69;;;22.26;100.00
77626;BME280;66794;43.764;10.436;2023-07-29T02:45:56;101733.78;;;22.14;100.00
77626;BME280;66794;43.764;10.436;2023-07-29T02:48:42;101724.91;;;22.30;100.00
77626;BME280;66794;43.764;10.436;2023-07-29T02:51:28;101742.28;;;22.31;100.00
77626;BME280;66794;43.764;10.436;2023-07-29T02:54:14;101729.09;;;22.33;100.00
77626;BME280;66794;43.764;10.436;2023-07-29T02:57:00;101732.78;;;22.27;100.00
77626;BME280;66794;43.764;10.436;2023-07-29T02:59:46;101733.94;;;22.38;100.00
77626;BME280;66794;43.764;10.436;2023-07-29T03:02:32;101732.88;;;22.20;100.00
77626;BME280;66794;43.764;10.436;2023-07-29T03:05:17;101731.50;;;22.29;100.00
77626;BME280;66794;43.764;10.436;2023-07-29T03:08:03;101712.88;;;21.82;100.00
77626;BME280;66794;43.764;10.436;2023-07-29T03:10:49;101690.03;;;21.74;100.00
77626;BME280;66794;43.764;10.436;2023-07-29T03:13:35;101740.03;;;22.03;100.00
77626;BME280;66794;43.764;10.436;2023-07-29T03:16:20;101734.00;;;22.13;100.00
77626;BME280;66794;43.764;10.436;2023-07-29T03:19:06;101734.56;;;21.96;100.00
77626;BME280;66794;43.764;10.436;2023-07-29T03:21:52;101743.28;;;21.75;100.00
77626;BME280;66794;43.764;10.436;2023-07-29T03:24:37;101739.44;;;21.76;100.00
77626;BME280;66794;43.764;10.436;2023-07-29T03:27:23;101742.28;;;21.69;100.00
77626;BME280;66794;43.764;10.436;2023-07-29T03:30:09;101759.44;;;21.71;100.00
77626;BME280;66794;43.764;10.436;2023-07-29T03:32:55;101740.72;;;21.73;100.00
77626;BME280;66794;43.764;10.436;2023-07-29T03:35:41;101745.13;;;21.81;100.00
77626;BME280;66794;43.764;10.436;2023-07-29T03:38:29;101767.44;;;21.98;100.00
77626;BME280;66794;43.764;10.436;2023-07-29T03:41:15;101750.34;;;21.89;100.00
77626;BME280;66794;43.764;10.436;2023-07-29T03:44:01;101746.75;;;22.07;100.00
77626;BME280;66794;43.764;10.436;2023-07-29T03:46:47;101739.56;;;22.06;100.00
77626;BME280;66794;43.764;10.436;2023-07-29T03:49:32;101735.13;;;22.05;100.00
77626;BME280;66794;43.764;10.436;2023-07-29T03:52:18;101719.75;;;21.72;100.00
77626;BME280;66794;43.764;10.436;2023-07-29T03:55:04;101730.63;;;21.67;100.00
77626;BME280;66794;43.764;10.436;2023-07-29T03:57:50;101730.75;;;21.54;100.00
77626;BME280;66794;43.764;10.436;2023-07-29T04:00:36;101717.69;;;21.43;100.00
77626;BME280;66794;43.764;10.436;2023-07-29T04:03:21;101741.38;;;21.50;100.00
77626;BME280;66794;43.764;10.436;2023-07-29T04:06:07;101737.66;;;21.38;100.00
77626;BME280;66794;43.764;10.436;2023-07-29T04:08:53;101767.06;;;21.44;100.00
77626;BME280;66794;43.764;10.436;2023-07-29T04:11:39;101770.91;;;21.43;100.00
77626;BME280;66794;43.764;10.436;2023-07-29T04:14:25;101762.31;;;21.26;100.00
77626;BME280;66794;43.764;10.436;2023-07-29T04:17:10;101765.66;;;21.35;100.00
77626;BME280;66794;43.764;10.436;2023-07-29T04:19:56;101773.94;;;21.60;100.00
77626;BME280;66794;43.764;10.436;2023-07-29T04:22:42;101779.63;;;21.65;100.00
77626;BME280;66794;43.764;10.436;2023-07-29T04:25:27;101759.69;;;21.63;100.00
77626;BME280;66794;43.764;10.436;2023-07-29T04:28:13;101773.38;;;21.76;100.00
77626;BME280;66794;43.764;10.436;2023-07-29T04:30:59;101769.97;;;21.74;100.00
77626;BME280;66794;43.764;10.436;2023-07-29T04:33:45;101775.22;;;21.83;100.00
77626;BME280;66794;43.764;10.436;2023-07-29T04:36:31;101768.09;;;21.75;100.00
77626;BME280;66794;43.764;10.436;2023-07-29T04:39:16;101771.22;;;21.78;100.00
77626;BME280;66794;43.764;10.436;2023-07-29T04:42:02;101772.97;;;21.98;100.00
77626;BME280;66794;43.764;10.436;2023-07-29T04:44:48;101771.44;;;22.02;100.00
77626;BME280;66794;43.764;10.436;2023-07-29T04:47:34;101768.28;;;21.98;100.00
77626;BME280;66794;43.764;10.436;2023-07-29T04:50:19;101767.97;;;22.13;100.00
77626;BME280;66794;43.764;10.436;2023-07-29T04:53:05;101774.03;;;21.97;100.00
77626;BME280;66794;43.764;10.436;2023-07-29T04:55:51;101779.38;;;22.17;100.00
77626;BME280;66794;43.764;10.436;2023-07-29T04:58:36;101785.59;;;22.30;100.00
77626;BME280;66794;43.764;10.436;2023-07-29T05:01:22;101770.72;;;22.31;100.00
77626;BME280;66794;43.764;10.436;2023-07-29T05:04:08;101763.75;;;22.47;100.00
77626;BME280;66794;43.764;10.436;2023-07-29T05:06:54;101756.75;;;22.63;100.00
77626;BME280;66794;43.764;10.436;2023-07-29T05:09:40;101752.38;;;22.55;100.00
77626;BME280;66794;43.764;10.436;2023-07-29T05:12:25;101745.81;;;22.56;100.00
77626;BME280;66794;43.764;10.436;2023-07-29T05:15:11;101739.13;;;22.27;100.00
77626;BME280;66794;43.764;10.436;2023-07-29T05:17:57;101752.56;;;22.42;100.00
77626;BME280;66794;43.764;10.436;2023-07-29T05:20:43;101755.91;;;22.44;100.00
77626;BME280;66794;43.764;10.436;2023-07-29T05:23:29;101763.44;;;22.37;100.00
77626;BME280;66794;43.764;10.436;2023-07-29T05:26:14;101788.59;;;22.47;100.00
77626;BME280;66794;43.764;10.436;2023-07-29T05:29:00;101775.03;;;22.46;100.00
77626;BME280;66794;43.764;10.436;2023-07-29T05:31:47;101762.97;;;22.58;100.00
77626;BME280;66794;43.764;10.436;2023-07-29T05:34:35;101758.34;;;22.71;100.00
77626;BME280;66794;43.764;10.436;2023-07-29T05:37:21;101761.84;;;22.78;100.00
77626;BME280;66794;43.764;10.436;2023-07-29T05:40:07;101761.88;;;22.96;100.00
77626;BME280;66794;43.764;10.436;2023-07-29T05:42:54;101770.06;;;23.03;100.00
77626;BME280;66794;43.764;10.436;2023-07-29T05:45:40;101779.72;;;23.12;100.00
77626;BME280;66794;43.764;10.436;2023-07-29T05:48:26;101757.38;;;23.14;100.00
77626;BME280;66794;43.764;10.436;2023-07-29T05:51:12;101766.97;;;23.11;100.00
77626;BME280;66794;43.764;10.436;2023-07-29T05:53:58;101761.34;;;23.18;100.00
77626;BME280;66794;43.764;10.436;2023-07-29T05:56:46;101770.25;;;23.31;100.00
77626;BME280;66794;43.764;10.436;2023-07-29T05:59:32;101761.59;;;23.16;100.00
77626;BME280;66794;43.764;10.436;2023-07-29T06:02:18;101786.13;;;23.24;100.00
77626;BME280;66794;43.764;10.436;2023-07-29T06:05:04;101769.41;;;23.19;100.00
77626;BME280;66794;43.764;10.436;2023-07-29T06:07:50;101772.88;;;23.26;100.00
77626;BME280;66794;43.764;10.436;2023-07-29T06:10:35;101772.22;;;23.43;100.00
77626;BME280;66794;43.764;10.436;2023-07-29T06:13:21;101784.28;;;23.60;100.00
77626;BME280;66794;43.764;10.436;2023-07-29T06:16:07;101774.06;;;23.60;100.00
77626;BME280;66794;43.764;10.436;2023-07-29T06:18:52;101777.28;;;23.57;100.00
77626;BME280;66794;43.764;10.436;2023-07-29T06:21:38;101777.47;;;23.63;100.00
77626;BME280;66794;43.764;10.436;2023-07-29T06:24:24;101783.91;;;23.56;100.00
77626;BME280;66794;43.764;10.436;2023-07-29T06:27:10;101765.69;;;23.67;100.00
77626;BME280;66794;43.764;10.436;2023-07-29T06:29:55;101774.69;;;23.63;100.00
77626;BME280;66794;43.764;10.436;2023-07-29T06:32:41;101778.19;;;23.70;100.00
77626;BME280;66794;43.764;10.436;2023-07-29T06:35:27;101782.41;;;23.72;100.00
77626;BME280;66794;43.764;10.436;2023-07-29T06:38:13;101785.91;;;23.91;100.00
77626;BME280;66794;43.764;10.436;2023-07-29T06:40:58;101766.22;;;23.57;100.00
77626;BME280;66794;43.764;10.436;2023-07-29T06:43:44;101780.09;;;23.81;100.00
77626;BME280;66794;43.764;10.436;2023-07-29T06:46:30;101771.69;;;23.76;100.00
77626;BME280;66794;43.764;10.436;2023-07-29T06:49:16;101775.69;;;24.15;100.00
77626;BME280;66794;43.764;10.436;2023-07-29T06:52:01;101773.63;;;24.22;100.00
77626;BME280;66794;43.764;10.436;2023-07-29T06:54:47;101773.84;;;24.32;100.00
77626;BME280;66794;43.764;10.436;2023-07-29T06:57:33;101776.38;;;24.34;100.00
77626;BME280;66794;43.764;10.436;2023-07-29T07:00:19;101781.78;;;24.64;100.00
77626;BME280;66794;43.764;10.436;2023-07-29T07:03:04;101755.00;;;24.70;100.00
77626;BME280;66794;43.764;10.436;2023-07-29T07:05:50;101772.72;;;25.09;100.00
77626;BME280;66794;43.764;10.436;2023-07-29T07:08:36;101756.00;;;25.21;100.00
77626;BME280;66794;43.764;10.436;2023-07-29T07:11:22;101762.09;;;25.34;100.00
77626;BME280;66794;43.764;10.436;2023-07-29T07:14:08;101755.75;;;25.22;100.00
77626;BME280;66794;43.764;10.436;2023-07-29T07:16:54;101756.16;;;25.14;100.00
77626;BME280;66794;43.764;10.436;2023-07-29T07:19:39;101741.66;;;25.24;100.00
77626;BME280;66794;43.764;10.436;2023-07-29T07:22:25;101754.84;;;25.33;100.00
77626;BME280;66794;43.764;10.436;2023-07-29T07:25:11;101749.91;;;25.35;100.00
77626;BME280;66794;43.764;10.436;2023-07-29T07:27:57;101751.66;;;25.58;100.00
77626;BME280;66794;43.764;10.436;2023-07-29T07:30:42;101725.03;;;25.24;100.00
77626;BME280;66794;43.764;10.436;2023-07-29T07:33:28;101739.25;;;25.94;100.00
77626;BME280;66794;43.764;10.436;2023-07-29T07:36:14;101722.13;;;26.03;100.00
77626;BME280;66794;43.764;10.436;2023-07-29T07:39:01;101749.84;;;26.19;100.00
77626;BME280;66794;43.764;10.436;2023-07-29T07:41:47;101743.00;;;25.71;100.00
77626;BME280;66794;43.764;10.436;2023-07-29T07:44:33;101747.03;;;25.98;100.00
77626;BME280;66794;43.764;10.436;2023-07-29T07:47:18;101744.25;;;26.58;100.00
77626;BME280;66794;43.764;10.436;2023-07-29T07:50:04;101727.28;;;26.77;100.00
77626;BME280;66794;43.764;10.436;2023-07-29T07:52:50;101732.78;;;26.50;100.00
77626;BME280;66794;43.764;10.436;2023-07-29T07:55:36;101738.00;;;26.46;100.00
77626;BME280;66794;43.764;10.436;2023-07-29T07:58:21;101678.47;;;25.98;100.00
77626;BME280;66794;43.764;10.436;2023-07-29T08:01:08;101728.28;;;26.43;100.00
77626;BME280;66794;43.764;10.436;2023-07-29T08:03:54;101718.34;;;26.31;100.00
77626;BME280;66794;43.764;10.436;2023-07-29T08:06:40;101725.63;;;26.37;100.00
77626;BME280;66794;43.764;10.436;2023-07-29T08:09:26;101715.56;;;27.01;100.00
77626;BME280;66794;43.764;10.436;2023-07-29T08:12:11;101716.16;;;27.31;100.00
77626;BME280;66794;43.764;10.436;2023-07-29T08:14:57;101716.44;;;26.80;100.00
77626;BME280;66794;43.764;10.436;2023-07-29T08:17:43;101728.63;;;27.28;100.00
77626;BME280;66794;43.764;10.436;2023-07-29T08:20:30;101735.88;;;26.75;100.00
77626;BME280;66794;43.764;10.436;2023-07-29T08:23:16;101719.22;;;26.80;100.00
77626;BME280;66794;43.764;10.436;2023-07-29T08:26:04;101724.06;;;26.90;100.00
77626;BME280;66794;43.764;10.436;2023-07-29T08:28:50;101720.66;;;27.37;100.00
77626;BME280;66794;43.764;10.436;2023-07-29T08:31:36;101724.56;;;27.36;100.00
77626;BME280;66794;43.764;10.436;2023-07-29T08:34:22;101717.22;;;27.62;100.00
77626;BME280;66794;43.764;10.436;2023-07-29T08:37:08;101714.03;;;27.11;100.00
77626;BME280;66794;43.764;10.436;2023-07-29T08:39:53;101709.31;;;27.43;100.00
77626;BME280;66794;43.764;10.436;2023-07-29T08:42:41;101718.84;;;27.20;100.00
77626;BME280;66794;43.764;10.436;2023-07-29T08:45:28;101709.13;;;27.92;100.00
77626;BME280;66794;43.764;10.436;2023-07-29T08:48:19;101697.19;;;27.60;100.00
77626;BME280;66794;43.764;10.436;2023-07-29T08:51:09;101706.44;;;27.33;100.00
77626;BME280;66794;43.764;10.436;2023-07-29T08:53:55;101709.72;;;28.04;100.00
77626;BME280;66794;43.764;10.436;2023-07-29T08:56:42;101704.41;;;27.61;100.00
77626;BME280;66794;43.764;10.436;2023-07-29T08:59:28;101695.06;;;27.40;100.00
77626;BME280;66794;43.764;10.436;2023-07-29T09:02:14;101700.97;;;27.81;100.00
77626;BME280;66794;43.764;10.436;2023-07-29T09:05:01;101697.84;;;27.72;100.00
77626;BME280;66794;43.764;10.436;2023-07-29T09:07:51;101692.50;;;28.08;100.00
77626;BME280;66794;43.764;10.436;2023-07-29T09:10:38;101697.59;;;28.26;100.00
77626;BME280;66794;43.764;10.436;2023-07-29T09:13:24;101707.59;;;28.17;100.00
77626;BME280;66794;43.764;10.436;2023-07-29T09:16:10;101679.06;;;27.89;100.00
77626;BME280;66794;43.764;10.436;2023-07-29T09:19:01;101700.41;;;27.78;100.00
77626;BME280;66794;43.764;10.436;2023-07-29T09:21:47;101679.00;;;27.79;100.00
77626;BME280;66794;43.764;10.436;2023-07-29T09:24:33;101670.63;;;27.79;100.00
77626;BME280;66794;43.764;10.436;2023-07-29T09:27:26;101691.34;;;28.03;100.00
77626;BME280;66794;43.764;10.436;2023-07-29T09:30:16;101690.84;;;28.12;100.00
77626;BME280;66794;43.764;10.436;2023-07-29T09:33:02;101696.13;;;28.08;100.00
77626;BME280;66794;43.764;10.436;2023-07-29T09:35:48;101690.69;;;27.49;100.00
77626;BME280;66794;43.764;10.436;2023-07-29T09:38:34;101689.38;;;27.99;100.00
77626;BME280;66794;43.764;10.436;2023-07-29T09:41:26;101696.88;;;28.51;100.00
77626;BME280;66794;43.764;10.436;2023-07-29T09:44:12;101692.19;;;28.62;100.00
77626;BME280;66794;43.764;10.436;2023-07-29T09:46:58;101672.69;;;28.62;100.00
77626;BME280;66794;43.764;10.436;2023-07-29T09:49:43;101686.38;;;28.89;100.00
77626;BME280;66794;43.764;10.436;2023-07-29T09:52:30;101686.03;;;28.65;100.00
77626;BME280;66794;43.764;10.436;2023-07-29T09:55:20;101691.94;;;28.78;100.00
77626;BME280;66794;43.764;10.436;2023-07-29T09:58:06;101682.25;;;28.18;100.00
77626;BME280;66794;43.764;10.436;2023-07-29T10:00:53;101671.03;;;28.03;100.00
77626;BME280;66794;43.764;10.436;2023-07-29T10:03:39;101674.84;;;27.87;100.00
77626;BME280;66794;43.764;10.436;2023-07-29T10:06:26;101689.56;;;27.82;100.00
77626;BME280;66794;43.764;10.436;2023-07-29T10:09:12;101690.22;;;27.99;100.00
77626;BME280;66794;43.764;10.436;2023-07-29T10:11:58;101690.16;;;28.37;100.00
77626;BME280;66794;43.764;10.436;2023-07-29T10:14:46;101687.56;;;28.25;100.00
77626;BME280;66794;43.764;10.436;2023-07-29T10:17:35;101681.00;;;28.46;100.00
77626;BME280;66794;43.764;10.436;2023-07-29T10:20:22;101686.44;;;28.26;100.00
77626;BME280;66794;43.764;10.436;2023-07-29T10:23:08;101666.50;;;27.87;100.00
77626;BME280;66794;43.764;10.436;2023-07-29T10:26:03;101695.53;;;28.64;100.00
77626;BME280;66794;43.764;10.436;2023-07-29T10:28:52;101669.16;;;29.17;100.00
77626;BME280;66794;43.764;10.436;2023-07-29T10:31:43;101683.25;;;28.54;100.00
77626;BME280;66794;43.764;10.436;2023-07-29T10:34:30;101684.56;;;28.37;100.00
77626;BME280;66794;43.764;10.436;2023-07-29T10:37:16;101684.97;;;28.66;100.00
77626;BME280;66794;43.764;10.436;2023-07-29T10:40:06;101651.78;;;28.79;100.00
77626;BME280;66794;43.764;10.436;2023-07-29T10:43:03;101663.72;;;28.60;100.00
77626;BME280;66794;43.764;10.436;2023-07-29T10:45:49;101654.06;;;29.18;100.00
77626;BME280;66794;43.764;10.436;2023-07-29T10:51:25;101665.25;;;29.64;100.00
77626;BME280;66794;43.764;10.436;2023-07-29T10:54:13;101675.53;;;28.87;100.00
77626;BME280;66794;43.764;10.436;2023-07-29T10:56:59;101650.34;;;28.46;100.00
77626;BME280;66794;43.764;10.436;2023-07-29T10:59:55;101679.84;;;28.42;100.00
77626;BME280;66794;43.764;10.436;2023-07-29T11:02:41;101671.09;;;28.18;100.00
77626;BME280;66794;43.764;10.436;2023-07-29T11:05:27;101658.44;;;28.58;100.00
77626;BME280;66794;43.764;10.436;2023-07-29T11:08:28;101662.78;;;28.28;100.00
77626;BME280;66794;43.764;10.436;2023-07-29T11:11:14;101646.34;;;28.32;100.00
77626;BME280;66794;43.764;10.436;2023-07-29T11:14:00;101677.22;;;29.19;100.00
77626;BME280;66794;43.764;10.436;2023-07-29T11:16:45;101653.19;;;28.72;100.00
77626;BME280;66794;43.764;10.436;2023-07-29T11:19:32;101677.25;;;28.98;100.00
77626;BME280;66794;43.764;10.436;2023-07-29T11:22:20;101620.97;;;28.18;100.00
77626;BME280;66794;43.764;10.436;2023-07-29T11:25:07;101665.22;;;29.13;100.00
77626;BME280;66794;43.764;10.436;2023-07-29T11:27:55;101659.38;;;28.94;100.00
77626;BME280;66794;43.764;10.436;2023-07-29T11:30:41;101646.78;;;28.81;100.00
77626;BME280;66794;43.764;10.436;2023-07-29T11:33:27;101645.94;;;28.86;100.00
77626;BME280;66794;43.764;10.436;2023-07-29T11:36:19;101660.09;;;28.49;100.00
77626;BME280;66794;43.764;10.436;2023-07-29T11:39:11;101662.44;;;29.23;100.00
77626;BME280;66794;43.764;10.436;2023-07-29T11:41:57;101621.38;;;28.63;100.00
77626;BME280;66794;43.764;10.436;2023-07-29T11:44:43;101645.13;;;29.57;100.00
77626;BME280;66794;43.764;10.436;2023-07-29T11:47:29;101642.50;;;30.01;100.00
77626;BME280;66794;43.764;10.436;2023-07-29T11:50:15;101638.16;;;29.59;100.00
77626;BME280;66794;43.764;10.436;2023-07-29T11:53:01;101611.63;;;29.62;100.00
77626;BME280;66794;43.764;10.436;2023-07-29T11:55:51;101608.00;;;30.36;100.00
77626;BME280;66794;43.764;10.436;2023-07-29T11:58:38;101600.94;;;29.84;100.00
77626;BME280;66794;43.764;10.436;2023-07-29T12:01:24;101626.97;;;29.75;100.00
77626;BME280;66794;43.764;10.436;2023-07-29T12:04:10;101617.50;;;29.50;100.00
77626;BME280;66794;43.764;10.436;2023-07-29T12:06:56;101609.03;;;29.91;100.00
77626;BME280;66794;43.764;10.436;2023-07-29T12:09:42;101598.75;;;29.76;100.00
77626;BME280;66794;43.764;10.436;2023-07-29T12:12:29;101610.53;;;28.61;100.00
77626;BME280;66794;43.764;10.436;2023-07-29T12:15:25;101594.31;;;29.50;100.00
77626;BME280;66794;43.764;10.436;2023-07-29T12:18:11;101601.63;;;30.65;100.00
77626;BME280;66794;43.764;10.436;2023-07-29T12:20:57;101594.00;;;29.72;100.00
77626;BME280;66794;43.764;10.436;2023-07-29T12:23:43;101597.44;;;30.73;100.00
77626;BME280;66794;43.764;10.436;2023-07-29T12:26:29;101604.69;;;30.69;100.00
77626;BME280;66794;43.764;10.436;2023-07-29T12:29:17;101608.19;;;29.91;100.00
77626;BME280;66794;43.764;10.436;2023-07-29T12:32:05;101586.13;;;30.44;100.00
77626;BME280;66794;43.764;10.436;2023-07-29T12:34:53;101577.97;;;31.21;100.00
77626;BME280;66794;43.764;10.436;2023-07-29T12:37:39;101573.19;;;31.26;100.00
77626;BME280;66794;43.764;10.436;2023-07-29T12:40:28;101580.25;;;31.72;100.00
77626;BME280;66794;43.764;10.436;2023-07-29T12:43:14;101542.00;;;31.86;100.00
77626;BME280;66794;43.764;10.436;2023-07-29T12:45:59;101573.38;;;31.59;100.00
77626;BME280;66794;43.764;10.436;2023-07-29T12:48:45;101567.06;;;31.19;100.00
77626;BME280;66794;43.764;10.436;2023-07-29T12:51:31;101576.88;;;30.48;100.00
77626;BME280;66794;43.764;10.436;2023-07-29T12:54:17;101554.91;;;30.76;100.00
77626;BME280;66794;43.764;10.436;2023-07-29T12:57:03;101568.94;;;32.43;100.00
77626;BME280;66794;43.764;10.436;2023-07-29T12:59:49;101548.84;;;32.17;100.00
77626;BME280;66794;43.764;10.436;2023-07-29T13:02:35;101556.91;;;31.33;100.00
77626;BME280;66794;43.764;10.436;2023-07-29T13:05:21;101554.38;;;30.69;100.00
77626;BME280;66794;43.764;10.436;2023-07-29T13:08:06;101557.63;;;31.92;100.00
77626;BME280;66794;43.764;10.436;2023-07-29T13:10:52;101549.88;;;31.84;100.00
77626;BME280;66794;43.764;10.436;2023-07-29T13:13:38;101556.97;;;32.19;100.00
77626;BME280;66794;43.764;10.436;2023-07-29T13:16:24;101561.50;;;32.34;100.00
77626;BME280;66794;43.764;10.436;2023-07-29T13:19:10;101555.97;;;31.43;100.00
77626;BME280;66794;43.764;10.436;2023-07-29T13:21:55;101550.75;;;31.31;100.00
77626;BME280;66794;43.764;10.436;2023-07-29T13:24:41;101572.22;;;32.08;100.00
77626;BME280;66794;43.764;10.436;2023-07-29T13:27:27;101568.34;;;31.85;100.00
77626;BME280;66794;43.764;10.436;2023-07-29T13:30:14;101558.31;;;31.79;100.00
77626;BME280;66794;43.764;10.436;2023-07-29T13:32:59;101557.69;;;31.87;100.00
77626;BME280;66794;43.764;10.436;2023-07-29T13:35:45;101578.13;;;31.05;100.00
77626;BME280;66794;43.764;10.436;2023-07-29T13:38:31;101550.09;;;30.81;100.00
77626;BME280;66794;43.764;10.436;2023-07-29T13:41:17;101567.25;;;31.57;100.00
77626;BME280;66794;43.764;10.436;2023-07-29T13:44:02;101553.38;;;31.47;100.00
77626;BME280;66794;43.764;10.436;2023-07-29T13:46:48;101567.44;;;31.65;100.00
77626;BME280;66794;43.764;10.436;2023-07-29T13:49:34;101562.13;;;31.11;100.00
77626;BME280;66794;43.764;10.436;2023-07-29T13:52:20;101553.88;;;31.54;100.00
77626;BME280;66794;43.764;10.436;2023-07-29T13:55:06;101549.34;;;31.82;100.00
77626;BME280;66794;43.764;10.436;2023-07-29T13:57:52;101546.91;;;32.37;100.00
77626;BME280;66794;43.764;10.436;2023-07-29T14:00:39;101548.97;;;31.88;100.00
77626;BME280;66794;43.764;10.436;2023-07-29T14:03:24;101547.50;;;32.53;100.00
77626;BME280;66794;43.764;10.436;2023-07-29T14:06:10;101555.69;;;32.30;100.00
77626;BME280;66794;43.764;10.436;2023-07-29T14:08:56;101534.88;;;31.69;100.00
77626;BME280;66794;43.764;10.436;2023-07-29T14:11:42;101545.56;;;32.29;100.00
77626;BME280;66794;43.764;10.436;2023-07-29T14:14:27;101532.34;;;32.54;100.00
77626;BME280;66794;43.764;10.436;2023-07-29T14:17:13;101546.84;;;31.32;100.00
77626;BME280;66794;43.764;10.436;2023-07-29T14:19:59;101516.50;;;32.63;100.00